sensor_id;sensor_type;location;lat;lon;timestamp;P1;durP1;ratioP1;P2;durP2;ratioP2
75691;SDS011;64307;52.508;6.090;2023-03-14T00:01:45;14.80;;;2.10;;
75691;SDS011;64307;52.508;6.090;2023-03-14T00:06:36;11.70;;;2.15;;
75691;SDS011;64307;52.508;6.090;2023-03-14T00:11:27;13.23;;;2.72;;
75691;SDS011;64307;52.508;6.090;2023-03-14T00:13:53;10.48;;;2.70;;
75691;SDS011;64307;52.508;6.090;2023-03-14T00:16:18;9.85;;;3.88;;
75691;SDS011;64307;52.508;6.090;2023-03-14T00:18:44;10.70;;;2.80;;
75691;SDS011;64307;52.508;6.090;2023-03-14T00:23:36;15.05;;;4.03;;
75691;SDS011;64307;52.508;6.090;2023-03-14T00:26:03;13.15;;;4.10;;
75691;SDS011;64307;52.508;6.090;2023-03-14T00:28:30;11.00;;;3.80;;
75691;SDS011;64307;52.508;6.090;2023-03-14T00:33:21;11.88;;;2.67;;
75691;SDS011;64307;52.508;6.090;2023-03-14T00:35:56;13.85;;;3.70;;
75691;SDS011;64307;52.508;6.090;2023-03-14T00:38:26;10.88;;;2.53;;
75691;SDS011;64307;52.508;6.090;2023-03-14T00:43:17;11.43;;;1.93;;
75691;SDS011;64307;52.508;6.090;2023-03-14T00:48:08;15.77;;;3.17;;
75691;SDS011;64307;52.508;6.090;2023-03-14T00:52:59;16.63;;;4.27;;
75691;SDS011;64307;52.508;6.090;2023-03-14T00:57:49;16.88;;;3.70;;
75691;SDS011;64307;52.508;6.090;2023-03-14T01:00:15;16.35;;;4.95;;
75691;SDS011;64307;52.508;6.090;2023-03-14T01:05:05;15.50;;;3.77;;
75691;SDS011;64307;52.508;6.090;2023-03-14T01:07:32;14.90;;;3.58;;
75691;SDS011;64307;52.508;6.090;2023-03-14T01:12:23;11.13;;;3.23;;
75691;SDS011;64307;52.508;6.090;2023-03-14T01:17:13;16.00;;;2.33;;
75691;SDS011;64307;52.508;6.090;2023-03-14T01:22:04;12.20;;;2.17;;
75691;SDS011;64307;52.508;6.090;2023-03-14T01:26:54;13.63;;;2.37;;
75691;SDS011;64307;52.508;6.090;2023-03-14T01:31:44;13.00;;;2.40;;
75691;SDS011;64307;52.508;6.090;2023-03-14T01:34:10;20.57;;;3.47;;
75691;SDS011;64307;52.508;6.090;2023-03-14T01:36:35;11.67;;;3.47;;
75691;SDS011;64307;52.508;6.090;2023-03-14T01:39:00;13.63;;;2.55;;
75691;SDS011;64307;52.508;6.090;2023-03-14T01:43:52;14.55;;;2.10;;
75691;SDS011;64307;52.508;6.090;2023-03-14T01:54:08;11.48;;;3.15;;
75691;SDS011;64307;52.508;6.090;2023-03-14T01:56:34;11.68;;;2.20;;
75691;SDS011;64307;52.508;6.090;2023-03-14T01:59:00;12.75;;;1.50;;
75691;SDS011;64307;52.508;6.090;2023-03-14T02:01:28;9.30;;;1.77;;
75691;SDS011;64307;52.508;6.090;2023-03-14T02:06:21;6.68;;;1.02;;
75691;SDS011;64307;52.508;6.090;2023-03-14T02:08:49;8.65;;;1.55;;
75691;SDS011;64307;52.508;6.090;2023-03-14T02:11:16;7.90;;;1.23;;
75691;SDS011;64307;52.508;6.090;2023-03-14T02:13:43;10.57;;;1.48;;
75691;SDS011;64307;52.508;6.090;2023-03-14T02:18:34;7.90;;;2.17;;
75691;SDS011;64307;52.508;6.090;2023-03-14T02:26:38;8.85;;;1.60;;
75691;SDS011;64307;52.508;6.090;2023-03-14T02:29:08;6.43;;;1.48;;
75691;SDS011;64307;52.508;6.090;2023-03-14T02:31:33;6.90;;;1.45;;
75691;SDS011;64307;52.508;6.090;2023-03-14T02:33:59;7.43;;;1.83;;
75691;SDS011;64307;52.508;6.090;2023-03-14T02:36:24;9.82;;;2.28;;
75691;SDS011;64307;52.508;6.090;2023-03-14T02:41:35;7.88;;;2.75;;
75691;SDS011;64307;52.508;6.090;2023-03-14T02:44:00;8.50;;;2.33;;
75691;SDS011;64307;52.508;6.090;2023-03-14T02:46:25;8.13;;;1.88;;
75691;SDS011;64307;52.508;6.090;2023-03-14T02:48:57;9.13;;;1.77;;
75691;SDS011;64307;52.508;6.090;2023-03-14T02:51:28;10.35;;;2.22;;
75691;SDS011;64307;52.508;6.090;2023-03-14T02:53:53;8.40;;;1.85;;
75691;SDS011;64307;52.508;6.090;2023-03-14T02:56:19;11.88;;;2.72;;
75691;SDS011;64307;52.508;6.090;2023-03-14T02:58:44;9.63;;;1.65;;
75691;SDS011;64307;52.508;6.090;2023-03-14T03:01:09;7.17;;;1.70;;
75691;SDS011;64307;52.508;6.090;2023-03-14T03:03:35;9.50;;;2.28;;
75691;SDS011;64307;52.508;6.090;2023-03-14T03:06:00;11.65;;;1.50;;
75691;SDS011;64307;52.508;6.090;2023-03-14T03:08:26;10.68;;;1.90;;
75691;SDS011;64307;52.508;6.090;2023-03-14T03:10:52;6.55;;;1.55;;
75691;SDS011;64307;52.508;6.090;2023-03-14T03:13:18;11.95;;;2.63;;
75691;SDS011;64307;52.508;6.090;2023-03-14T03:15:44;12.68;;;1.58;;
75691;SDS011;64307;52.508;6.090;2023-03-14T03:18:09;9.98;;;2.33;;
75691;SDS011;64307;52.508;6.090;2023-03-14T03:20:35;9.65;;;2.50;;
75691;SDS011;64307;52.508;6.090;2023-03-14T03:23:01;10.10;;;1.77;;
75691;SDS011;64307;52.508;6.090;2023-03-14T03:25:27;11.30;;;3.22;;
75691;SDS011;64307;52.508;6.090;2023-03-14T03:27:52;11.90;;;2.92;;
75691;SDS011;64307;52.508;6.090;2023-03-14T03:30:18;9.70;;;1.42;;
75691;SDS011;64307;52.508;6.090;2023-03-14T03:32:43;7.53;;;1.90;;
75691;SDS011;64307;52.508;6.090;2023-03-14T03:37:34;10.68;;;2.28;;
75691;SDS011;64307;52.508;6.090;2023-03-14T03:40:01;8.65;;;2.72;;
75691;SDS011;64307;52.508;6.090;2023-03-14T03:42:29;8.38;;;2.88;;
75691;SDS011;64307;52.508;6.090;2023-03-14T03:44:55;8.45;;;2.55;;
75691;SDS011;64307;52.508;6.090;2023-03-14T03:47:20;8.90;;;1.97;;
75691;SDS011;64307;52.508;6.090;2023-03-14T03:49:45;8.98;;;1.88;;
75691;SDS011;64307;52.508;6.090;2023-03-14T03:52:10;6.67;;;1.67;;
75691;SDS011;64307;52.508;6.090;2023-03-14T03:54:36;10.93;;;2.63;;
75691;SDS011;64307;52.508;6.090;2023-03-14T03:57:01;9.30;;;2.22;;
75691;SDS011;64307;52.508;6.090;2023-03-14T03:59:26;10.53;;;2.50;;
75691;SDS011;64307;52.508;6.090;2023-03-14T04:01:53;9.40;;;2.08;;
75691;SDS011;64307;52.508;6.090;2023-03-14T04:04:18;10.82;;;2.47;;
75691;SDS011;64307;52.508;6.090;2023-03-14T04:06:44;12.87;;;2.57;;
75691;SDS011;64307;52.508;6.090;2023-03-14T04:09:09;8.25;;;3.38;;
75691;SDS011;64307;52.508;6.090;2023-03-14T04:11:36;10.80;;;3.97;;
75691;SDS011;64307;52.508;6.090;2023-03-14T04:14:01;10.95;;;4.25;;
75691;SDS011;64307;52.508;6.090;2023-03-14T04:16:27;9.15;;;2.75;;
75691;SDS011;64307;52.508;6.090;2023-03-14T04:18:52;7.45;;;2.22;;
75691;SDS011;64307;52.508;6.090;2023-03-14T04:21:18;9.40;;;2.15;;
75691;SDS011;64307;52.508;6.090;2023-03-14T04:23:45;9.30;;;2.10;;
75691;SDS011;64307;52.508;6.090;2023-03-14T04:26:10;8.50;;;2.65;;
75691;SDS011;64307;52.508;6.090;2023-03-14T04:28:36;8.00;;;3.45;;
75691;SDS011;64307;52.508;6.090;2023-03-14T04:31:11;8.38;;;2.60;;
75691;SDS011;64307;52.508;6.090;2023-03-14T04:33:39;9.57;;;3.25;;
75691;SDS011;64307;52.508;6.090;2023-03-14T04:36:05;10.93;;;3.35;;
75691;SDS011;64307;52.508;6.090;2023-03-14T04:38:31;7.55;;;2.70;;
75691;SDS011;64307;52.508;6.090;2023-03-14T04:40:57;10.05;;;3.38;;
75691;SDS011;64307;52.508;6.090;2023-03-14T04:43:22;7.18;;;1.70;;
75691;SDS011;64307;52.508;6.090;2023-03-14T04:45:48;9.88;;;3.08;;
75691;SDS011;64307;52.508;6.090;2023-03-14T04:48:13;8.45;;;2.17;;
75691;SDS011;64307;52.508;6.090;2023-03-14T04:50:38;12.55;;;3.10;;
75691;SDS011;64307;52.508;6.090;2023-03-14T04:53:04;9.23;;;1.90;;
75691;SDS011;64307;52.508;6.090;2023-03-14T04:55:30;9.18;;;1.67;;
75691;SDS011;64307;52.508;6.090;2023-03-14T04:57:57;7.82;;;3.13;;
75691;SDS011;64307;52.508;6.090;2023-03-14T05:00:22;6.38;;;1.95;;
75691;SDS011;64307;52.508;6.090;2023-03-14T05:02:47;6.63;;;1.80;;
75691;SDS011;64307;52.508;6.090;2023-03-14T05:05:12;9.80;;;2.03;;
75691;SDS011;64307;52.508;6.090;2023-03-14T05:07:39;7.28;;;1.98;;
75691;SDS011;64307;52.508;6.090;2023-03-14T05:10:05;10.27;;;3.40;;
75691;SDS011;64307;52.508;6.090;2023-03-14T05:12:30;9.93;;;3.00;;
75691;SDS011;64307;52.508;6.090;2023-03-14T05:14:55;12.32;;;2.70;;
75691;SDS011;64307;52.508;6.090;2023-03-14T05:17:20;7.27;;;2.03;;
75691;SDS011;64307;52.508;6.090;2023-03-14T05:19:46;8.63;;;2.17;;
75691;SDS011;64307;52.508;6.090;2023-03-14T05:22:12;9.35;;;1.73;;
75691;SDS011;64307;52.508;6.090;2023-03-14T05:24:37;8.82;;;1.73;;
75691;SDS011;64307;52.508;6.090;2023-03-14T05:27:03;9.63;;;2.00;;
75691;SDS011;64307;52.508;6.090;2023-03-14T05:31:54;8.07;;;1.98;;
75691;SDS011;64307;52.508;6.090;2023-03-14T05:34:19;5.40;;;1.40;;
75691;SDS011;64307;52.508;6.090;2023-03-14T05:36:45;13.20;;;2.65;;
75691;SDS011;64307;52.508;6.090;2023-03-14T05:39:10;10.20;;;1.95;;
75691;SDS011;64307;52.508;6.090;2023-03-14T05:41:35;9.27;;;2.00;;
75691;SDS011;64307;52.508;6.090;2023-03-14T05:46:26;10.38;;;2.33;;
75691;SDS011;64307;52.508;6.090;2023-03-14T05:48:51;9.82;;;2.78;;
75691;SDS011;64307;52.508;6.090;2023-03-14T05:51:17;8.10;;;2.80;;
75691;SDS011;64307;52.508;6.090;2023-03-14T05:53:43;10.02;;;2.13;;
75691;SDS011;64307;52.508;6.090;2023-03-14T05:56:08;9.48;;;2.30;;
75691;SDS011;64307;52.508;6.090;2023-03-14T05:58:34;8.13;;;3.10;;
75691;SDS011;64307;52.508;6.090;2023-03-14T06:01:03;9.33;;;3.27;;
75691;SDS011;64307;52.508;6.090;2023-03-14T06:03:29;6.68;;;2.15;;
75691;SDS011;64307;52.508;6.090;2023-03-14T06:08:19;7.27;;;3.13;;
75691;SDS011;64307;52.508;6.090;2023-03-14T06:10:44;11.25;;;3.33;;
75691;SDS011;64307;52.508;6.090;2023-03-14T06:13:10;6.72;;;2.15;;
75691;SDS011;64307;52.508;6.090;2023-03-14T06:15:35;7.90;;;2.78;;
75691;SDS011;64307;52.508;6.090;2023-03-14T06:18:01;7.45;;;2.42;;
75691;SDS011;64307;52.508;6.090;2023-03-14T06:20:26;8.07;;;2.75;;
75691;SDS011;64307;52.508;6.090;2023-03-14T06:22:51;7.63;;;2.50;;
75691;SDS011;64307;52.508;6.090;2023-03-14T06:25:17;5.57;;;1.88;;
75691;SDS011;64307;52.508;6.090;2023-03-14T06:27:42;7.53;;;3.13;;
75691;SDS011;64307;52.508;6.090;2023-03-14T06:30:07;5.03;;;2.10;;
75691;SDS011;64307;52.508;6.090;2023-03-14T06:32:33;6.57;;;2.45;;
75691;SDS011;64307;52.508;6.090;2023-03-14T06:34:58;4.47;;;2.43;;
75691;SDS011;64307;52.508;6.090;2023-03-14T06:37:26;7.32;;;2.78;;
75691;SDS011;64307;52.508;6.090;2023-03-14T06:39:54;6.25;;;2.10;;
75691;SDS011;64307;52.508;6.090;2023-03-14T06:42:20;8.90;;;4.07;;
75691;SDS011;64307;52.508;6.090;2023-03-14T06:44:46;8.25;;;2.70;;
75691;SDS011;64307;52.508;6.090;2023-03-14T06:47:12;9.52;;;3.45;;
75691;SDS011;64307;52.508;6.090;2023-03-14T06:52:02;8.87;;;2.50;;
75691;SDS011;64307;52.508;6.090;2023-03-14T06:54:28;7.40;;;2.67;;
75691;SDS011;64307;52.508;6.090;2023-03-14T06:56:53;11.27;;;2.73;;
75691;SDS011;64307;52.508;6.090;2023-03-14T06:59:18;4.60;;;2.13;;
75691;SDS011;64307;52.508;6.090;2023-03-14T07:01:43;2.53;;;0.53;;
75691;SDS011;64307;52.508;6.090;2023-03-14T07:04:09;1.75;;;0.75;;
75691;SDS011;64307;52.508;6.090;2023-03-14T07:06:34;2.83;;;1.92;;
75691;SDS011;64307;52.508;6.090;2023-03-14T07:09:00;4.22;;;1.23;;
75691;SDS011;64307;52.508;6.090;2023-03-14T07:11:25;2.87;;;1.30;;
75691;SDS011;64307;52.508;6.090;2023-03-14T07:13:51;3.65;;;0.80;;
75691;SDS011;64307;52.508;6.090;2023-03-14T07:16:17;4.05;;;1.40;;
75691;SDS011;64307;52.508;6.090;2023-03-14T07:18:42;3.78;;;0.60;;
75691;SDS011;64307;52.508;6.090;2023-03-14T07:21:08;3.22;;;0.60;;
75691;SDS011;64307;52.508;6.090;2023-03-14T07:25:59;2.75;;;1.67;;
75691;SDS011;64307;52.508;6.090;2023-03-14T07:28:24;2.77;;;0.50;;
75691;SDS011;64307;52.508;6.090;2023-03-14T07:30:50;4.07;;;1.40;;
75691;SDS011;64307;52.508;6.090;2023-03-14T07:33:15;4.05;;;1.00;;
75691;SDS011;64307;52.508;6.090;2023-03-14T07:35:41;4.72;;;0.80;;
75691;SDS011;64307;52.508;6.090;2023-03-14T07:38:06;4.63;;;1.38;;
75691;SDS011;64307;52.508;6.090;2023-03-14T07:40:31;4.68;;;0.52;;
75691;SDS011;64307;52.508;6.090;2023-03-14T07:42:57;3.03;;;1.43;;
75691;SDS011;64307;52.508;6.090;2023-03-14T07:45:22;4.03;;;0.68;;
75691;SDS011;64307;52.508;6.090;2023-03-14T07:47:47;4.07;;;0.38;;
75691;SDS011;64307;52.508;6.090;2023-03-14T07:50:13;6.97;;;0.73;;
75691;SDS011;64307;52.508;6.090;2023-03-14T07:52:38;6.15;;;0.68;;
75691;SDS011;64307;52.508;6.090;2023-03-14T07:55:04;3.72;;;0.65;;
75691;SDS011;64307;52.508;6.090;2023-03-14T07:57:29;8.55;;;1.42;;
75691;SDS011;64307;52.508;6.090;2023-03-14T07:59:54;6.25;;;1.65;;
75691;SDS011;64307;52.508;6.090;2023-03-14T08:02:20;8.07;;;2.03;;
75691;SDS011;64307;52.508;6.090;2023-03-14T08:04:47;3.95;;;0.32;;
75691;SDS011;64307;52.508;6.090;2023-03-14T08:07:12;3.92;;;2.00;;
75691;SDS011;64307;52.508;6.090;2023-03-14T08:09:38;3.42;;;1.27;;
75691;SDS011;64307;52.508;6.090;2023-03-14T08:12:03;4.82;;;0.40;;
75691;SDS011;64307;52.508;6.090;2023-03-14T08:14:29;5.22;;;0.98;;
75691;SDS011;64307;52.508;6.090;2023-03-14T08:16:55;8.27;;;1.48;;
75691;SDS011;64307;52.508;6.090;2023-03-14T08:19:21;3.10;;;0.40;;
75691;SDS011;64307;52.508;6.090;2023-03-14T08:21:46;6.32;;;1.60;;
75691;SDS011;64307;52.508;6.090;2023-03-14T08:24:11;4.95;;;1.15;;
75691;SDS011;64307;52.508;6.090;2023-03-14T08:26:37;2.72;;;0.40;;
75691;SDS011;64307;52.508;6.090;2023-03-14T08:29:02;2.05;;;0.20;;
75691;SDS011;64307;52.508;6.090;2023-03-14T08:31:29;1.48;;;0.13;;
75691;SDS011;64307;52.508;6.090;2023-03-14T08:33:55;6.18;;;1.20;;
75691;SDS011;64307;52.508;6.090;2023-03-14T08:36:22;4.45;;;0.52;;
75691;SDS011;64307;52.508;6.090;2023-03-14T08:38:48;3.75;;;0.47;;
75691;SDS011;64307;52.508;6.090;2023-03-14T08:41:13;3.05;;;0.38;;
75691;SDS011;64307;52.508;6.090;2023-03-14T08:43:38;2.37;;;0.40;;
75691;SDS011;64307;52.508;6.090;2023-03-14T08:46:03;6.00;;;0.50;;
75691;SDS011;64307;52.508;6.090;2023-03-14T08:48:29;4.78;;;0.30;;
75691;SDS011;64307;52.508;6.090;2023-03-14T08:50:56;3.15;;;0.32;;
75691;SDS011;64307;52.508;6.090;2023-03-14T08:53:22;3.42;;;0.75;;
75691;SDS011;64307;52.508;6.090;2023-03-14T08:55:50;1.85;;;0.30;;
75691;SDS011;64307;52.508;6.090;2023-03-14T08:58:17;6.00;;;2.90;;
75691;SDS011;64307;52.508;6.090;2023-03-14T09:00:42;4.00;;;0.63;;
75691;SDS011;64307;52.508;6.090;2023-03-14T09:03:08;4.18;;;1.17;;
75691;SDS011;64307;52.508;6.090;2023-03-14T09:05:33;3.07;;;1.20;;
75691;SDS011;64307;52.508;6.090;2023-03-14T09:07:59;1.80;;;0.60;;
75691;SDS011;64307;52.508;6.090;2023-03-14T09:10:24;3.72;;;1.05;;
75691;SDS011;64307;52.508;6.090;2023-03-14T09:12:49;2.73;;;1.10;;
75691;SDS011;64307;52.508;6.090;2023-03-14T09:15:15;5.50;;;1.65;;
75691;SDS011;64307;52.508;6.090;2023-03-14T09:17:42;3.15;;;1.70;;
75691;SDS011;64307;52.508;6.090;2023-03-14T09:20:08;5.88;;;0.30;;
75691;SDS011;64307;52.508;6.090;2023-03-14T09:22:34;5.00;;;0.70;;
75691;SDS011;64307;52.508;6.090;2023-03-14T09:25:00;3.15;;;0.73;;
75691;SDS011;64307;52.508;6.090;2023-03-14T09:27:26;6.70;;;0.85;;
75691;SDS011;64307;52.508;6.090;2023-03-14T09:29:51;3.72;;;0.60;;
75691;SDS011;64307;52.508;6.090;2023-03-14T09:32:16;6.53;;;2.27;;
75691;SDS011;64307;52.508;6.090;2023-03-14T09:34:42;5.38;;;0.60;;
75691;SDS011;64307;52.508;6.090;2023-03-14T09:37:07;5.75;;;0.85;;
75691;SDS011;64307;52.508;6.090;2023-03-14T09:39:33;4.67;;;0.93;;
75691;SDS011;64307;52.508;6.090;2023-03-14T09:41:58;3.63;;;0.60;;
75691;SDS011;64307;52.508;6.090;2023-03-14T09:44:33;7.40;;;0.95;;
75691;SDS011;64307;52.508;6.090;2023-03-14T09:47:03;9.50;;;1.33;;
75691;SDS011;64307;52.508;6.090;2023-03-14T09:49:34;13.00;;;1.52;;
75691;SDS011;64307;52.508;6.090;2023-03-14T09:52:05;12.32;;;1.58;;
75691;SDS011;64307;52.508;6.090;2023-03-14T09:54:43;7.65;;;0.80;;
75691;SDS011;64307;52.508;6.090;2023-03-14T09:57:13;8.20;;;1.10;;
75691;SDS011;64307;52.508;6.090;2023-03-14T09:59:42;9.18;;;2.13;;
75691;SDS011;64307;52.508;6.090;2023-03-14T10:02:17;8.65;;;0.85;;
75691;SDS011;64307;52.508;6.090;2023-03-14T10:04:45;11.98;;;1.05;;
75691;SDS011;64307;52.508;6.090;2023-03-14T10:07:12;5.90;;;0.80;;
75691;SDS011;64307;52.508;6.090;2023-03-14T10:09:42;8.10;;;1.80;;
75691;SDS011;64307;52.508;6.090;2023-03-14T10:12:08;8.45;;;1.63;;
75691;SDS011;64307;52.508;6.090;2023-03-14T10:17:08;10.02;;;2.33;;
75691;SDS011;64307;52.508;6.090;2023-03-14T10:19:36;12.40;;;1.13;;
75691;SDS011;64307;52.508;6.090;2023-03-14T10:22:05;13.48;;;1.52;;
75691;SDS011;64307;52.508;6.090;2023-03-14T10:24:38;11.88;;;1.10;;
75691;SDS011;64307;52.508;6.090;2023-03-14T10:27:19;11.98;;;1.20;;
75691;SDS011;64307;52.508;6.090;2023-03-14T10:29:56;11.40;;;1.85;;
75691;SDS011;64307;52.508;6.090;2023-03-14T10:32:27;10.75;;;2.20;;
75691;SDS011;64307;52.508;6.090;2023-03-14T10:35:05;14.13;;;2.42;;
75691;SDS011;64307;52.508;6.090;2023-03-14T10:37:33;10.95;;;1.80;;
75691;SDS011;64307;52.508;6.090;2023-03-14T10:39:59;10.20;;;1.40;;
75691;SDS011;64307;52.508;6.090;2023-03-14T10:42:31;15.18;;;1.50;;
75691;SDS011;64307;52.508;6.090;2023-03-14T10:45:00;13.70;;;1.70;;
75691;SDS011;64307;52.508;6.090;2023-03-14T10:47:29;14.38;;;1.77;;
75691;SDS011;64307;52.508;6.090;2023-03-14T10:49:55;13.15;;;2.38;;
75691;SDS011;64307;52.508;6.090;2023-03-14T10:52:46;12.73;;;1.30;;
75691;SDS011;64307;52.508;6.090;2023-03-14T10:55:13;15.13;;;2.05;;
75691;SDS011;64307;52.508;6.090;2023-03-14T10:57:39;9.25;;;1.20;;
75691;SDS011;64307;52.508;6.090;2023-03-14T11:00:05;15.88;;;2.35;;
75691;SDS011;64307;52.508;6.090;2023-03-14T11:05:28;17.20;;;1.88;;
75691;SDS011;64307;52.508;6.090;2023-03-14T11:08:15;14.95;;;1.80;;
75691;SDS011;64307;52.508;6.090;2023-03-14T11:10:49;9.88;;;1.55;;
75691;SDS011;64307;52.508;6.090;2023-03-14T11:22:21;13.23;;;2.45;;
75691;SDS011;64307;52.508;6.090;2023-03-14T11:27:53;6.55;;;1.15;;
75691;SDS011;64307;52.508;6.090;2023-03-14T11:30:29;14.18;;;2.17;;
75691;SDS011;64307;52.508;6.090;2023-03-14T11:33:14;8.48;;;1.92;;
75691;SDS011;64307;52.508;6.090;2023-03-14T11:35:46;12.93;;;1.33;;
75691;SDS011;64307;52.508;6.090;2023-03-14T11:38:29;8.82;;;1.30;;
75691;SDS011;64307;52.508;6.090;2023-03-14T11:41:00;11.95;;;1.10;;
75691;SDS011;64307;52.508;6.090;2023-03-14T11:45:54;9.32;;;1.65;;
75691;SDS011;64307;52.508;6.090;2023-03-14T11:51:05;9.13;;;2.35;;
75691;SDS011;64307;52.508;6.090;2023-03-14T11:56:53;7.53;;;1.77;;
75691;SDS011;64307;52.508;6.090;2023-03-14T11:59:33;8.85;;;1.05;;
75691;SDS011;64307;52.508;6.090;2023-03-14T12:02:32;9.38;;;2.45;;
75691;SDS011;64307;52.508;6.090;2023-03-14T12:10:42;13.40;;;2.08;;
75691;SDS011;64307;52.508;6.090;2023-03-14T12:13:11;9.63;;;1.95;;
75691;SDS011;64307;52.508;6.090;2023-03-14T12:15:39;5.82;;;0.90;;
75691;SDS011;64307;52.508;6.090;2023-03-14T12:18:24;9.65;;;1.55;;
75691;SDS011;64307;52.508;6.090;2023-03-14T12:21:04;9.98;;;1.27;;
75691;SDS011;64307;52.508;6.090;2023-03-14T12:23:41;9.73;;;1.13;;
75691;SDS011;64307;52.508;6.090;2023-03-14T12:28:39;4.90;;;0.82;;
75691;SDS011;64307;52.508;6.090;2023-03-14T12:34:03;6.70;;;1.73;;
75691;SDS011;64307;52.508;6.090;2023-03-14T12:41:51;7.53;;;1.73;;
75691;SDS011;64307;52.508;6.090;2023-03-14T12:46:58;6.20;;;1.85;;
75691;SDS011;64307;52.508;6.090;2023-03-14T12:49:34;5.85;;;1.58;;
75691;SDS011;64307;52.508;6.090;2023-03-14T12:54:49;5.65;;;0.50;;
75691;SDS011;64307;52.508;6.090;2023-03-14T12:59:59;6.22;;;0.85;;
75691;SDS011;64307;52.508;6.090;2023-03-14T13:02:27;4.70;;;1.75;;
75691;SDS011;64307;52.508;6.090;2023-03-14T13:07:30;6.30;;;0.57;;
75691;SDS011;64307;52.508;6.090;2023-03-14T13:13:20;3.63;;;1.60;;
75691;SDS011;64307;52.508;6.090;2023-03-14T13:15:48;6.78;;;1.23;;
75691;SDS011;64307;52.508;6.090;2023-03-14T13:18:23;7.53;;;0.70;;
75691;SDS011;64307;52.508;6.090;2023-03-14T13:20:55;4.88;;;0.60;;
75691;SDS011;64307;52.508;6.090;2023-03-14T13:23:27;6.00;;;1.58;;
75691;SDS011;64307;52.508;6.090;2023-03-14T13:25:54;4.85;;;1.15;;
75691;SDS011;64307;52.508;6.090;2023-03-14T13:28:20;8.32;;;1.05;;
75691;SDS011;64307;52.508;6.090;2023-03-14T13:33:16;4.97;;;1.98;;
75691;SDS011;64307;52.508;6.090;2023-03-14T13:35:47;5.32;;;1.45;;
75691;SDS011;64307;52.508;6.090;2023-03-14T13:38:20;4.72;;;0.88;;
75691;SDS011;64307;52.508;6.090;2023-03-14T13:40:48;3.30;;;0.63;;
75691;SDS011;64307;52.508;6.090;2023-03-14T13:43:23;5.90;;;0.65;;
75691;SDS011;64307;52.508;6.090;2023-03-14T13:48:22;7.53;;;1.25;;
75691;SDS011;64307;52.508;6.090;2023-03-14T13:50:53;6.22;;;2.08;;
75691;SDS011;64307;52.508;6.090;2023-03-14T13:53:21;5.75;;;1.88;;
75691;SDS011;64307;52.508;6.090;2023-03-14T13:55:47;7.10;;;2.25;;
75691;SDS011;64307;52.508;6.090;2023-03-14T13:58:23;8.45;;;0.80;;
75691;SDS011;64307;52.508;6.090;2023-03-14T14:00:57;4.65;;;0.40;;
75691;SDS011;64307;52.508;6.090;2023-03-14T14:03:26;7.93;;;1.75;;
75691;SDS011;64307;52.508;6.090;2023-03-14T14:05:54;13.27;;;0.90;;
75691;SDS011;64307;52.508;6.090;2023-03-14T14:08:21;9.38;;;2.00;;
75691;SDS011;64307;52.508;6.090;2023-03-14T14:10:47;6.72;;;0.80;;
75691;SDS011;64307;52.508;6.090;2023-03-14T14:13:14;8.75;;;0.77;;
75691;SDS011;64307;52.508;6.090;2023-03-14T14:15:45;5.45;;;1.00;;
75691;SDS011;64307;52.508;6.090;2023-03-14T14:18:15;7.13;;;1.23;;
75691;SDS011;64307;52.508;6.090;2023-03-14T14:20:46;4.65;;;1.00;;
75691;SDS011;64307;52.508;6.090;2023-03-14T14:23:14;9.75;;;0.80;;
75691;SDS011;64307;52.508;6.090;2023-03-14T14:25:44;6.47;;;1.00;;
75691;SDS011;64307;52.508;6.090;2023-03-14T14:28:33;6.07;;;1.55;;
75691;SDS011;64307;52.508;6.090;2023-03-14T14:33:39;3.70;;;1.08;;
75691;SDS011;64307;52.508;6.090;2023-03-14T14:36:12;7.78;;;1.20;;
75691;SDS011;64307;52.508;6.090;2023-03-14T14:38:48;9.43;;;1.23;;
75691;SDS011;64307;52.508;6.090;2023-03-14T14:41:15;6.05;;;1.45;;
75691;SDS011;64307;52.508;6.090;2023-03-14T14:43:41;7.80;;;1.75;;
75691;SDS011;64307;52.508;6.090;2023-03-14T14:46:07;8.38;;;1.60;;
75691;SDS011;64307;52.508;6.090;2023-03-14T14:48:37;10.90;;;1.80;;
75691;SDS011;64307;52.508;6.090;2023-03-14T14:51:04;7.60;;;2.17;;
75691;SDS011;64307;52.508;6.090;2023-03-14T14:53:41;9.70;;;1.15;;
75691;SDS011;64307;52.508;6.090;2023-03-14T14:56:17;8.88;;;1.95;;
75691;SDS011;64307;52.508;6.090;2023-03-14T14:58:47;9.70;;;1.42;;
75691;SDS011;64307;52.508;6.090;2023-03-14T15:03:41;6.65;;;1.02;;
75691;SDS011;64307;52.508;6.090;2023-03-14T15:06:08;7.20;;;1.05;;
75691;SDS011;64307;52.508;6.090;2023-03-14T15:08:37;4.93;;;0.68;;
75691;SDS011;64307;52.508;6.090;2023-03-14T15:11:02;4.95;;;0.60;;
75691;SDS011;64307;52.508;6.090;2023-03-14T15:13:29;9.02;;;0.65;;
75691;SDS011;64307;52.508;6.090;2023-03-14T15:15:54;7.03;;;1.80;;
75691;SDS011;64307;52.508;6.090;2023-03-14T15:18:21;8.45;;;1.65;;
75691;SDS011;64307;52.508;6.090;2023-03-14T15:20:48;6.82;;;0.60;;
75691;SDS011;64307;52.508;6.090;2023-03-14T15:23:14;4.15;;;0.60;;
75691;SDS011;64307;52.508;6.090;2023-03-14T15:25:41;4.70;;;1.40;;
75691;SDS011;64307;52.508;6.090;2023-03-14T15:28:16;9.07;;;1.85;;
75691;SDS011;64307;52.508;6.090;2023-03-14T15:30:45;7.72;;;1.40;;
75691;SDS011;64307;52.508;6.090;2023-03-14T15:33:12;6.72;;;0.80;;
75691;SDS011;64307;52.508;6.090;2023-03-14T15:35:37;4.85;;;0.60;;
75691;SDS011;64307;52.508;6.090;2023-03-14T15:38:03;11.60;;;1.67;;
75691;SDS011;64307;52.508;6.090;2023-03-14T15:40:28;4.68;;;1.25;;
75691;SDS011;64307;52.508;6.090;2023-03-14T15:42:54;5.68;;;1.60;;
75691;SDS011;64307;52.508;6.090;2023-03-14T15:45:19;6.63;;;0.63;;
75691;SDS011;64307;52.508;6.090;2023-03-14T15:47:44;7.93;;;0.68;;
75691;SDS011;64307;52.508;6.090;2023-03-14T15:50:10;6.85;;;0.73;;
75691;SDS011;64307;52.508;6.090;2023-03-14T15:52:36;6.75;;;1.25;;
75691;SDS011;64307;52.508;6.090;2023-03-14T15:55:01;5.88;;;1.30;;
75691;SDS011;64307;52.508;6.090;2023-03-14T15:57:26;7.93;;;1.80;;
75691;SDS011;64307;52.508;6.090;2023-03-14T15:59:52;7.57;;;1.30;;
75691;SDS011;64307;52.508;6.090;2023-03-14T16:02:17;4.25;;;1.60;;
75691;SDS011;64307;52.508;6.090;2023-03-14T16:04:42;5.25;;;0.63;;
75691;SDS011;64307;52.508;6.090;2023-03-14T16:07:08;14.57;;;0.77;;
75691;SDS011;64307;52.508;6.090;2023-03-14T16:09:34;6.78;;;1.00;;
75691;SDS011;64307;52.508;6.090;2023-03-14T16:11:59;5.27;;;1.60;;
75691;SDS011;64307;52.508;6.090;2023-03-14T16:14:24;8.32;;;2.28;;
75691;SDS011;64307;52.508;6.090;2023-03-14T16:16:53;7.25;;;0.60;;
75691;SDS011;64307;52.508;6.090;2023-03-14T16:19:19;6.68;;;0.73;;
75691;SDS011;64307;52.508;6.090;2023-03-14T16:21:44;3.72;;;1.40;;
75691;SDS011;64307;52.508;6.090;2023-03-14T16:24:10;12.07;;;1.50;;
75691;SDS011;64307;52.508;6.090;2023-03-14T16:26:36;8.77;;;1.47;;
75691;SDS011;64307;52.508;6.090;2023-03-14T16:29:01;4.82;;;0.88;;
75691;SDS011;64307;52.508;6.090;2023-03-14T16:31:27;5.30;;;0.60;;
75691;SDS011;64307;52.508;6.090;2023-03-14T16:33:52;5.90;;;1.45;;
75691;SDS011;64307;52.508;6.090;2023-03-14T16:36:18;9.45;;;1.77;;
75691;SDS011;64307;52.508;6.090;2023-03-14T16:38:43;9.85;;;1.92;;
75691;SDS011;64307;52.508;6.090;2023-03-14T16:41:13;9.23;;;2.30;;
75691;SDS011;64307;52.508;6.090;2023-03-14T16:43:41;5.43;;;0.63;;
75691;SDS011;64307;52.508;6.090;2023-03-14T16:48:35;10.50;;;0.80;;
75691;SDS011;64307;52.508;6.090;2023-03-14T16:51:00;7.15;;;0.45;;
75691;SDS011;64307;52.508;6.090;2023-03-14T16:53:25;7.38;;;1.45;;
75691;SDS011;64307;52.508;6.090;2023-03-14T16:55:53;4.53;;;1.83;;
75691;SDS011;64307;52.508;6.090;2023-03-14T16:58:18;6.10;;;1.85;;
75691;SDS011;64307;52.508;6.090;2023-03-14T17:00:45;8.00;;;1.25;;
75691;SDS011;64307;52.508;6.090;2023-03-14T17:09:17;10.82;;;2.33;;
75691;SDS011;64307;52.508;6.090;2023-03-14T17:11:43;7.50;;;1.58;;